Monte Toledo — CQRA — position and weather

sailwx.info

Track history (hours):
 
Tides and Currents Weather Stations Pressure Air Temp Water Temp Dewpoint Dewpoint Depression Visibility Wind Speed Wind Dir Waves Ship Positions

Monte Toledo

Last reported at 2015-Jun-27 12:26 UTC. Time now 2015-Jul-04 03:24 UTC.
Position N 35°49' E 015°42'.

Length 274 m; draft 9 m.

Type: Tanker. MMSI: 255740000.

Date/timePositionNaut miles runAvg speedWind from/ knotsBaromVisibWave heightAir tempDewpointWater temp
2015-Jun-27 12:26N 35°49' E 015°42'1112.4
2015-Jun-27 11:34N 35°53' E 015°29'1312.6
2015-Jun-27 10:33N 35°58' E 015°15'1312.6
2015-Jun-27 09:33N 36°02' E 015°00'1212.5
2015-Jun-27 08:34N 36°07' E 014°46'1312.7
2015-Jun-27 07:33N 36°12' E 014°32'1312.8
2015-Jun-27 06:34N 36°17' E 014°17'1312.8
2015-Jun-27 05:34N 36°22' E 014°02'1212.4
2015-Jun-27 04:34N 36°26' E 013°48'1212.1
2015-Jun-27 03:34N 36°31' E 013°34'1212.3
2015-Jun-27 02:33N 36°35' E 013°19'1212.5
2015-Jun-27 01:33N 36°40' E 013°05'4112.7
2015-Jun-26 22:21N 36°55' E 012°18'1612.8
2015-Jun-26 21:06N 37°02' E 012°00'2113.1
2015-Jun-26 19:31N 37°11' E 011°37'1313.2
2015-Jun-26 18:33N 37°17' E 011°23'1313.0
2015-Jun-26 17:34N 37°23' E 011°08'1312.8
2015-Jun-26 16:31N 37°28' E 010°53'1414.1
2015-Jun-26 15:31N 37°35' E 010°38'1713.6
2015-Jun-26 14:17N 37°42' E 010°18'1013.1
2015-Jun-26 13:33N 37°47' E 010°07'1312.7
2015-Jun-26 12:33N 37°50' E 009°52'1713.2
2015-Jun-26 11:16N 37°51' E 009°31'12312.7
2015-Jun-26 01:32N 37°38' E 006°56'8112.6
2015-Jun-25 19:07N 37°27' E 005°14'813.2
2015-Jun-25 18:30N 37°26' E 005°04'1312.9
2015-Jun-25 17:30N 37°24' E 004°48'1512.6
2015-Jun-25 16:18N 37°21' E 004°29'912.6
2015-Jun-25 15:33N 37°20' E 004°18'2612.6
2015-Jun-25 13:27N 37°16' E 003°45'1112.5
2015-Jun-25 12:33N 37°14' E 003°31'1212.6
2015-Jun-25 11:33N 37°13' E 003°15'1313.1
2015-Jun-25 10:32N 37°11' E 002°59'1812.9
2015-Jun-25 09:07N 37°07' E 002°36'6412.6
2015-Jun-25 04:04N 36°53' E 001°18'1912.4
2015-Jun-25 02:33N 36°50' E 000°55'1312.7
2015-Jun-25 01:32N 36°47' E 000°39'1212.7
2015-Jun-25 00:33N 36°45' E 000°24'1312.6
2015-Jun-24 23:31N 36°42' E 000°08'3812.4
2015-Jun-24 20:27N 36°34' W 000°38'2412.6
2015-Jun-24 18:33N 36°29' W 001°07'3012.6
2015-Jun-24 16:11N 36°23' W 001°44'1312.6
2015-Jun-24 15:07N 36°20' W 002°00'712.7
2015-Jun-24 14:33N 36°19' W 002°09'1312.3
2015-Jun-24 13:30N 36°16' W 002°24'1412.7
2015-Jun-24 12:22N 36°13' W 002°42'12414.0
2015-Jun-24 03:34N 36°00' W 005°14'1211.6
2015-Jun-24 02:33N 36°08' W 005°24'2 1.7
2015-Jun-24 01:32N 36°10' W 005°25'0 0.0
2015-Jun-24 00:32N 36°10' W 005°25'0 0.0
2015-Jun-23 23:32N 36°10' W 005°25'0 0.0
2015-Jun-23 22:26N 36°10' W 005°25'0 0.1
2015-Jun-23 21:32N 36°10' W 005°25'0 0.1
2015-Jun-23 20:23N 36°10' W 005°25'0 0.0
2015-Jun-23 19:32N 36°10' W 005°25'0 0.0
2015-Jun-23 19:05N 36°10' W 005°25'0 0.0
2015-Jun-22 18:17N 36°10' W 005°25'0 0.4
2015-Jun-22 17:23N 36°09' W 005°25'0 0.1
2015-Jun-22 16:23N 36°09' W 005°25'0 0.1
2015-Jun-22 15:32N 36°09' W 005°24'0 0.1
2015-Jun-22 14:26N 36°09' W 005°25'0 0.0
2015-Jun-22 13:32N 36°09' W 005°25'0 0.1
2015-Jun-22 12:26N 36°09' W 005°25'0 0.0
2015-Jun-22 08:11N 36°09' W 005°25'0 0.1
2015-Jun-22 05:14N 36°09' W 005°25'0 0.3
2015-Jun-22 04:32N 36°09' W 005°25'0 0.0
2015-Jun-22 03:26N 36°10' W 005°25'0 0.2
2015-Jun-22 02:32N 36°09' W 005°24'0 0.1
2015-Jun-22 01:32N 36°09' W 005°24'0 0.1
2015-Jun-22 00:20N 36°09' W 005°25'0 0.0
2015-Jun-21 23:32N 36°09' W 005°25'0 0.0
2015-Jun-21 22:23N 36°09' W 005°25'0 0.2
2015-Jun-21 21:32N 36°09' W 005°24'0 0.1
2015-Jun-21 20:05N 36°10' W 005°25'0 0.0
2015-Jun-21 18:26N 36°09' W 005°25'0 0.0
2015-Jun-21 17:17N 36°10' W 005°25'0 0.0
2015-Jun-21 07:22N 36°09' W 005°25'4 4.4
2015-Jun-21 06:29N 36°06' W 005°23'2 2.7
2015-Jun-21 05:33N 36°04' W 005°21'2 2.0
2015-Jun-21 04:33N 36°03' W 005°22'1310.0
2015-Jun-21 03:13N 35°55' W 005°36'9 9.4
2015-Jun-21 02:18N 35°54' W 005°47'17810.6
2015-Jun-20 09:26N 34°01' W 008°35'1112.2
2015-Jun-20 08:33N 33°54' W 008°45'1212.2
2015-Jun-20 07:33N 33°47' W 008°56'41411.4
2015-Jun-18 19:23N 28°07' W 013°32'911.2
2015-Jun-18 18:33N 28°00' W 013°39'1111.4
2015-Jun-18 17:33N 27°52' W 013°48'1211.6
2015-Jun-18 16:33N 27°43' W 013°57'1111.5
2015-Jun-18 15:33N 27°34' W 014°05'1210.8
2015-Jun-18 14:24N 27°24' W 014°13'1011.3
2015-Jun-18 13:30N 27°16' W 014°20'  
Track history (hours):
 
Tides and Currents Weather Stations Pressure Air Temp Water Temp Dewpoint Dewpoint Depression Visibility Wind Speed Wind Dir Waves Ship Positions

Monte Toledo

Last reported at 2015-Jun-27 12:26 UTC. Time now 2015-Jul-04 03:24 UTC.
Position N 35°49' E 015°42'.

Length 274 m; draft 9 m.

Type: Tanker. MMSI: 255740000.

Date/timePositionNaut miles runAvg speedWind from/ knotsBaromVisibWave heightAir tempDewpointWater temp
2015-Jun-27 12:26N 35°49' E 015°42'1112.4
2015-Jun-27 11:34N 35°53' E 015°29'1312.6
2015-Jun-27 10:33N 35°58' E 015°15'1312.6
2015-Jun-27 09:33N 36°02' E 015°00'1212.5
2015-Jun-27 08:34N 36°07' E 014°46'1312.7
2015-Jun-27 07:33N 36°12' E 014°32'1312.8
2015-Jun-27 06:34N 36°17' E 014°17'1312.8
2015-Jun-27 05:34N 36°22' E 014°02'1212.4
2015-Jun-27 04:34N 36°26' E 013°48'1212.1
2015-Jun-27 03:34N 36°31' E 013°34'1212.3
2015-Jun-27 02:33N 36°35' E 013°19'1212.5
2015-Jun-27 01:33N 36°40' E 013°05'4112.7
2015-Jun-26 22:21N 36°55' E 012°18'1612.8
2015-Jun-26 21:06N 37°02' E 012°00'2113.1
2015-Jun-26 19:31N 37°11' E 011°37'1313.2
2015-Jun-26 18:33N 37°17' E 011°23'1313.0
2015-Jun-26 17:34N 37°23' E 011°08'1312.8
2015-Jun-26 16:31N 37°28' E 010°53'1414.1
2015-Jun-26 15:31N 37°35' E 010°38'1713.6
2015-Jun-26 14:17N 37°42' E 010°18'1013.1
2015-Jun-26 13:33N 37°47' E 010°07'1312.7
2015-Jun-26 12:33N 37°50' E 009°52'1713.2
2015-Jun-26 11:16N 37°51' E 009°31'12312.7
2015-Jun-26 01:32N 37°38' E 006°56'8112.6
2015-Jun-25 19:07N 37°27' E 005°14'813.2
2015-Jun-25 18:30N 37°26' E 005°04'1312.9
2015-Jun-25 17:30N 37°24' E 004°48'1512.6
2015-Jun-25 16:18N 37°21' E 004°29'912.6
2015-Jun-25 15:33N 37°20' E 004°18'2612.6
2015-Jun-25 13:27N 37°16' E 003°45'1112.5
2015-Jun-25 12:33N 37°14' E 003°31'1212.6
2015-Jun-25 11:33N 37°13' E 003°15'1313.1
2015-Jun-25 10:32N 37°11' E 002°59'1812.9
2015-Jun-25 09:07N 37°07' E 002°36'6412.6
2015-Jun-25 04:04N 36°53' E 001°18'1912.4
2015-Jun-25 02:33N 36°50' E 000°55'1312.7
2015-Jun-25 01:32N 36°47' E 000°39'1212.7
2015-Jun-25 00:33N 36°45' E 000°24'1312.6
2015-Jun-24 23:31N 36°42' E 000°08'3812.4
2015-Jun-24 20:27N 36°34' W 000°38'2412.6
2015-Jun-24 18:33N 36°29' W 001°07'3012.6
2015-Jun-24 16:11N 36°23' W 001°44'1312.6
2015-Jun-24 15:07N 36°20' W 002°00'712.7
2015-Jun-24 14:33N 36°19' W 002°09'1312.3
2015-Jun-24 13:30N 36°16' W 002°24'1412.7
2015-Jun-24 12:22N 36°13' W 002°42'12414.0
2015-Jun-24 03:34N 36°00' W 005°14'1211.6
2015-Jun-24 02:33N 36°08' W 005°24'2 1.7
2015-Jun-24 01:32N 36°10' W 005°25'0 0.0
2015-Jun-24 00:32N 36°10' W 005°25'0 0.0
2015-Jun-23 23:32N 36°10' W 005°25'0 0.0
2015-Jun-23 22:26N 36°10' W 005°25'0 0.1
2015-Jun-23 21:32N 36°10' W 005°25'0 0.1
2015-Jun-23 20:23N 36°10' W 005°25'0 0.0
2015-Jun-23 19:32N 36°10' W 005°25'0 0.0
2015-Jun-23 19:05N 36°10' W 005°25'0 0.0
2015-Jun-22 18:17N 36°10' W 005°25'0 0.4
2015-Jun-22 17:23N 36°09' W 005°25'0 0.1
2015-Jun-22 16:23N 36°09' W 005°25'0 0.1
2015-Jun-22 15:32N 36°09' W 005°24'0 0.1
2015-Jun-22 14:26N 36°09' W 005°25'0 0.0
2015-Jun-22 13:32N 36°09' W 005°25'0 0.1
2015-Jun-22 12:26N 36°09' W 005°25'0 0.0
2015-Jun-22 08:11N 36°09' W 005°25'0 0.1
2015-Jun-22 05:14N 36°09' W 005°25'0 0.3
2015-Jun-22 04:32N 36°09' W 005°25'0 0.0
2015-Jun-22 03:26N 36°10' W 005°25'0 0.2
2015-Jun-22 02:32N 36°09' W 005°24'0 0.1
2015-Jun-22 01:32N 36°09' W 005°24'0 0.1
2015-Jun-22 00:20N 36°09' W 005°25'0 0.0
2015-Jun-21 23:32N 36°09' W 005°25'0 0.0
2015-Jun-21 22:23N 36°09' W 005°25'0 0.2
2015-Jun-21 21:32N 36°09' W 005°24'0 0.1
2015-Jun-21 20:05N 36°10' W 005°25'0 0.0
2015-Jun-21 18:26N 36°09' W 005°25'0 0.0
2015-Jun-21 17:17N 36°10' W 005°25'0 0.0
2015-Jun-21 07:22N 36°09' W 005°25'4 4.4
2015-Jun-21 06:29N 36°06' W 005°23'2 2.7
2015-Jun-21 05:33N 36°04' W 005°21'2 2.0
2015-Jun-21 04:33N 36°03' W 005°22'1310.0
2015-Jun-21 03:13N 35°55' W 005°36'9 9.4
2015-Jun-21 02:18N 35°54' W 005°47'17810.6
2015-Jun-20 09:26N 34°01' W 008°35'1112.2
2015-Jun-20 08:33N 33°54' W 008°45'1212.2
2015-Jun-20 07:33N 33°47' W 008°56'41411.4
2015-Jun-18 19:23N 28°07' W 013°32'911.2
2015-Jun-18 18:33N 28°00' W 013°39'1111.4
2015-Jun-18 17:33N 27°52' W 013°48'1211.6
2015-Jun-18 16:33N 27°43' W 013°57'1111.5
2015-Jun-18 15:33N 27°34' W 014°05'1210.8
2015-Jun-18 14:24N 27°24' W 014°13'1011.3
2015-Jun-18 13:30N 27°16' W 014°20'  

Dump ship's entire track history